sensor_id;sensor_type;location;lat;lon;timestamp;P1;durP1;ratioP1;P2;durP2;ratioP2
48574;SDS011;34352;51.084;3.712;2023-07-13T00:01:44;2.75;;;1.48;;
48574;SDS011;34352;51.084;3.712;2023-07-13T00:04:11;2.03;;;1.40;;
48574;SDS011;34352;51.084;3.712;2023-07-13T00:06:39;1.05;;;0.98;;
48574;SDS011;34352;51.084;3.712;2023-07-13T00:09:06;5.10;;;1.35;;
48574;SDS011;34352;51.084;3.712;2023-07-13T00:11:32;2.38;;;1.10;;
48574;SDS011;34352;51.084;3.712;2023-07-13T00:13:57;7.15;;;1.42;;
48574;SDS011;34352;51.084;3.712;2023-07-13T00:16:25;2.72;;;1.50;;
48574;SDS011;34352;51.084;3.712;2023-07-13T00:18:51;4.40;;;1.58;;
48574;SDS011;34352;51.084;3.712;2023-07-13T00:21:17;6.38;;;1.55;;
48574;SDS011;34352;51.084;3.712;2023-07-13T00:23:45;3.15;;;1.77;;
48574;SDS011;34352;51.084;3.712;2023-07-13T00:26:11;2.80;;;1.63;;
48574;SDS011;34352;51.084;3.712;2023-07-13T00:28:38;3.28;;;1.77;;
48574;SDS011;34352;51.084;3.712;2023-07-13T00:31:08;2.80;;;1.27;;
48574;SDS011;34352;51.084;3.712;2023-07-13T00:33:35;5.03;;;2.03;;
48574;SDS011;34352;51.084;3.712;2023-07-13T00:36:03;4.65;;;1.40;;
48574;SDS011;34352;51.084;3.712;2023-07-13T00:38:30;3.45;;;1.70;;
48574;SDS011;34352;51.084;3.712;2023-07-13T00:40:58;3.28;;;1.33;;
48574;SDS011;34352;51.084;3.712;2023-07-13T00:43:27;6.32;;;1.20;;
48574;SDS011;34352;51.084;3.712;2023-07-13T00:48:20;4.97;;;1.50;;
48574;SDS011;34352;51.084;3.712;2023-07-13T00:50:50;1.95;;;1.15;;
48574;SDS011;34352;51.084;3.712;2023-07-13T00:53:20;2.05;;;1.20;;
48574;SDS011;34352;51.084;3.712;2023-07-13T00:55:47;4.32;;;1.83;;
48574;SDS011;34352;51.084;3.712;2023-07-13T00:58:15;6.93;;;1.58;;
48574;SDS011;34352;51.084;3.712;2023-07-13T01:00:43;3.15;;;1.65;;
48574;SDS011;34352;51.084;3.712;2023-07-13T01:03:09;5.00;;;2.13;;
48574;SDS011;34352;51.084;3.712;2023-07-13T01:05:35;3.17;;;1.85;;
48574;SDS011;34352;51.084;3.712;2023-07-13T01:08:03;2.58;;;1.35;;
48574;SDS011;34352;51.084;3.712;2023-07-13T01:10:30;1.60;;;1.33;;
48574;SDS011;34352;51.084;3.712;2023-07-13T01:13:03;2.80;;;1.33;;
48574;SDS011;34352;51.084;3.712;2023-07-13T01:15:42;4.68;;;1.85;;
48574;SDS011;34352;51.084;3.712;2023-07-13T01:18:18;3.47;;;1.42;;
48574;SDS011;34352;51.084;3.712;2023-07-13T01:20:53;6.00;;;2.30;;
48574;SDS011;34352;51.084;3.712;2023-07-13T01:23:20;2.40;;;1.35;;
48574;SDS011;34352;51.084;3.712;2023-07-13T01:25:46;10.45;;;2.30;;
48574;SDS011;34352;51.084;3.712;2023-07-13T01:28:12;4.97;;;1.95;;
48574;SDS011;34352;51.084;3.712;2023-07-13T01:30:39;3.97;;;1.90;;
48574;SDS011;34352;51.084;3.712;2023-07-13T01:33:07;4.60;;;2.03;;
48574;SDS011;34352;51.084;3.712;2023-07-13T01:35:34;6.72;;;2.13;;
48574;SDS011;34352;51.084;3.712;2023-07-13T01:38:01;2.05;;;1.40;;
48574;SDS011;34352;51.084;3.712;2023-07-13T01:40:28;3.05;;;1.50;;
48574;SDS011;34352;51.084;3.712;2023-07-13T01:42:55;7.93;;;2.22;;
48574;SDS011;34352;51.084;3.712;2023-07-13T01:45:21;3.28;;;2.17;;
48574;SDS011;34352;51.084;3.712;2023-07-13T01:47:46;9.93;;;3.15;;
48574;SDS011;34352;51.084;3.712;2023-07-13T01:50:12;4.07;;;1.65;;
48574;SDS011;34352;51.084;3.712;2023-07-13T01:52:38;3.47;;;1.73;;
48574;SDS011;34352;51.084;3.712;2023-07-13T01:55:04;7.55;;;2.00;;
48574;SDS011;34352;51.084;3.712;2023-07-13T01:57:30;5.80;;;2.25;;
48574;SDS011;34352;51.084;3.712;2023-07-13T01:59:55;4.05;;;1.67;;
48574;SDS011;34352;51.084;3.712;2023-07-13T02:02:22;4.32;;;2.30;;
48574;SDS011;34352;51.084;3.712;2023-07-13T02:04:47;3.20;;;1.88;;
48574;SDS011;34352;51.084;3.712;2023-07-13T02:07:13;6.25;;;2.00;;
48574;SDS011;34352;51.084;3.712;2023-07-13T02:09:41;2.85;;;1.80;;
48574;SDS011;34352;51.084;3.712;2023-07-13T02:12:07;6.40;;;1.67;;
48574;SDS011;34352;51.084;3.712;2023-07-13T02:14:33;4.47;;;1.77;;
48574;SDS011;34352;51.084;3.712;2023-07-13T02:16:59;15.55;;;2.50;;
48574;SDS011;34352;51.084;3.712;2023-07-13T02:19:24;5.65;;;2.58;;
48574;SDS011;34352;51.084;3.712;2023-07-13T02:21:52;4.28;;;2.45;;
48574;SDS011;34352;51.084;3.712;2023-07-13T02:24:25;7.53;;;2.17;;
48574;SDS011;34352;51.084;3.712;2023-07-13T02:26:53;3.70;;;2.30;;
48574;SDS011;34352;51.084;3.712;2023-07-13T02:29:18;4.57;;;2.28;;
48574;SDS011;34352;51.084;3.712;2023-07-13T02:31:44;5.03;;;2.00;;
48574;SDS011;34352;51.084;3.712;2023-07-13T02:34:10;6.55;;;2.50;;
48574;SDS011;34352;51.084;3.712;2023-07-13T02:36:36;7.55;;;2.33;;
48574;SDS011;34352;51.084;3.712;2023-07-13T02:39:02;4.15;;;2.10;;
48574;SDS011;34352;51.084;3.712;2023-07-13T02:41:30;6.07;;;2.22;;
48574;SDS011;34352;51.084;3.712;2023-07-13T02:43:57;6.82;;;2.20;;
48574;SDS011;34352;51.084;3.712;2023-07-13T02:48:59;4.55;;;2.38;;
48574;SDS011;34352;51.084;3.712;2023-07-13T02:51:26;4.90;;;2.97;;
48574;SDS011;34352;51.084;3.712;2023-07-13T02:53:52;3.17;;;2.00;;
48574;SDS011;34352;51.084;3.712;2023-07-13T02:56:22;7.38;;;2.22;;
48574;SDS011;34352;51.084;3.712;2023-07-13T03:01:16;6.30;;;2.60;;
48574;SDS011;34352;51.084;3.712;2023-07-13T03:03:43;6.93;;;2.30;;
48574;SDS011;34352;51.084;3.712;2023-07-13T03:06:08;6.03;;;2.35;;
48574;SDS011;34352;51.084;3.712;2023-07-13T03:08:34;10.27;;;2.53;;
48574;SDS011;34352;51.084;3.712;2023-07-13T03:11:00;6.45;;;2.70;;
48574;SDS011;34352;51.084;3.712;2023-07-13T03:13:27;6.03;;;2.83;;
48574;SDS011;34352;51.084;3.712;2023-07-13T03:15:53;11.60;;;2.72;;
48574;SDS011;34352;51.084;3.712;2023-07-13T03:18:19;5.15;;;2.63;;
48574;SDS011;34352;51.084;3.712;2023-07-13T03:20:44;4.03;;;2.42;;
48574;SDS011;34352;51.084;3.712;2023-07-13T03:23:10;4.13;;;2.45;;
48574;SDS011;34352;51.084;3.712;2023-07-13T03:25:36;5.00;;;2.25;;
48574;SDS011;34352;51.084;3.712;2023-07-13T03:28:01;4.75;;;2.00;;
48574;SDS011;34352;51.084;3.712;2023-07-13T03:30:27;3.35;;;1.90;;
48574;SDS011;34352;51.084;3.712;2023-07-13T03:32:53;9.18;;;2.85;;
48574;SDS011;34352;51.084;3.712;2023-07-13T03:35:18;7.03;;;3.00;;
48574;SDS011;34352;51.084;3.712;2023-07-13T03:37:44;5.03;;;2.63;;
48574;SDS011;34352;51.084;3.712;2023-07-13T03:40:10;5.10;;;2.53;;
48574;SDS011;34352;51.084;3.712;2023-07-13T03:42:36;5.43;;;2.47;;
48574;SDS011;34352;51.084;3.712;2023-07-13T03:45:02;7.47;;;2.13;;
48574;SDS011;34352;51.084;3.712;2023-07-13T03:47:29;3.22;;;2.10;;
48574;SDS011;34352;51.084;3.712;2023-07-13T03:49:56;6.78;;;2.65;;
48574;SDS011;34352;51.084;3.712;2023-07-13T03:52:23;4.68;;;2.42;;
48574;SDS011;34352;51.084;3.712;2023-07-13T03:54:49;9.63;;;2.67;;
48574;SDS011;34352;51.084;3.712;2023-07-13T03:57:18;4.82;;;2.63;;
48574;SDS011;34352;51.084;3.712;2023-07-13T03:59:43;4.53;;;2.30;;
48574;SDS011;34352;51.084;3.712;2023-07-13T04:02:10;7.30;;;2.58;;
48574;SDS011;34352;51.084;3.712;2023-07-13T04:04:37;9.55;;;3.30;;
48574;SDS011;34352;51.084;3.712;2023-07-13T04:07:06;22.25;;;3.97;;
48574;SDS011;34352;51.084;3.712;2023-07-13T04:09:35;3.17;;;2.00;;
48574;SDS011;34352;51.084;3.712;2023-07-13T04:12:01;7.65;;;2.80;;
48574;SDS011;34352;51.084;3.712;2023-07-13T04:14:28;4.28;;;2.47;;
48574;SDS011;34352;51.084;3.712;2023-07-13T04:16:54;4.18;;;2.53;;
48574;SDS011;34352;51.084;3.712;2023-07-13T04:19:20;5.63;;;2.38;;
48574;SDS011;34352;51.084;3.712;2023-07-13T04:21:46;5.20;;;2.47;;
48574;SDS011;34352;51.084;3.712;2023-07-13T04:24:12;7.20;;;2.75;;
48574;SDS011;34352;51.084;3.712;2023-07-13T04:26:38;12.05;;;3.17;;
48574;SDS011;34352;51.084;3.712;2023-07-13T04:29:04;7.80;;;2.75;;
48574;SDS011;34352;51.084;3.712;2023-07-13T04:31:31;6.80;;;2.65;;
48574;SDS011;34352;51.084;3.712;2023-07-13T04:33:57;7.65;;;2.80;;
48574;SDS011;34352;51.084;3.712;2023-07-13T04:36:24;7.07;;;2.92;;
48574;SDS011;34352;51.084;3.712;2023-07-13T04:38:53;3.25;;;2.42;;
48574;SDS011;34352;51.084;3.712;2023-07-13T04:41:19;7.07;;;3.20;;
48574;SDS011;34352;51.084;3.712;2023-07-13T04:43:47;5.07;;;2.65;;
48574;SDS011;34352;51.084;3.712;2023-07-13T04:46:16;7.85;;;2.70;;
48574;SDS011;34352;51.084;3.712;2023-07-13T04:48:50;7.38;;;2.80;;
48574;SDS011;34352;51.084;3.712;2023-07-13T04:51:20;8.25;;;3.17;;
48574;SDS011;34352;51.084;3.712;2023-07-13T04:53:46;11.52;;;3.33;;
48574;SDS011;34352;51.084;3.712;2023-07-13T04:56:11;9.40;;;3.20;;
48574;SDS011;34352;51.084;3.712;2023-07-13T04:58:37;9.43;;;3.08;;
48574;SDS011;34352;51.084;3.712;2023-07-13T05:07:21;11.15;;;3.50;;
48574;SDS011;34352;51.084;3.712;2023-07-13T05:10:04;6.43;;;2.92;;
48574;SDS011;34352;51.084;3.712;2023-07-13T05:12:30;5.85;;;2.67;;
48574;SDS011;34352;51.084;3.712;2023-07-13T05:14:56;3.25;;;2.30;;
48574;SDS011;34352;51.084;3.712;2023-07-13T05:17:24;5.50;;;2.70;;
48574;SDS011;34352;51.084;3.712;2023-07-13T05:19:50;9.15;;;2.42;;
48574;SDS011;34352;51.084;3.712;2023-07-13T05:22:17;11.35;;;3.47;;
48574;SDS011;34352;51.084;3.712;2023-07-13T05:24:48;7.18;;;2.65;;
48574;SDS011;34352;51.084;3.712;2023-07-13T05:27:14;5.13;;;2.65;;
48574;SDS011;34352;51.084;3.712;2023-07-13T05:29:40;8.65;;;3.05;;
48574;SDS011;34352;51.084;3.712;2023-07-13T05:32:06;5.65;;;2.72;;
48574;SDS011;34352;51.084;3.712;2023-07-13T05:34:32;5.22;;;2.95;;
48574;SDS011;34352;51.084;3.712;2023-07-13T05:36:58;5.05;;;2.35;;
48574;SDS011;34352;51.084;3.712;2023-07-13T05:39:26;8.75;;;3.40;;
48574;SDS011;34352;51.084;3.712;2023-07-13T05:41:54;9.20;;;3.20;;
48574;SDS011;34352;51.084;3.712;2023-07-13T05:44:20;12.93;;;3.72;;
48574;SDS011;34352;51.084;3.712;2023-07-13T05:46:46;7.75;;;3.40;;
48574;SDS011;34352;51.084;3.712;2023-07-13T05:49:13;9.32;;;3.63;;
48574;SDS011;34352;51.084;3.712;2023-07-13T05:51:39;8.25;;;3.30;;
48574;SDS011;34352;51.084;3.712;2023-07-13T05:54:06;6.85;;;3.35;;
48574;SDS011;34352;51.084;3.712;2023-07-13T05:56:31;9.02;;;3.17;;
48574;SDS011;34352;51.084;3.712;2023-07-13T05:59:02;9.10;;;3.55;;
48574;SDS011;34352;51.084;3.712;2023-07-13T06:01:29;9.93;;;3.33;;
48574;SDS011;34352;51.084;3.712;2023-07-13T06:03:56;7.50;;;3.10;;
48574;SDS011;34352;51.084;3.712;2023-07-13T06:08:52;9.93;;;3.53;;
48574;SDS011;34352;51.084;3.712;2023-07-13T06:11:20;10.18;;;3.55;;
48574;SDS011;34352;51.084;3.712;2023-07-13T06:13:48;7.22;;;3.33;;
48574;SDS011;34352;51.084;3.712;2023-07-13T06:16:14;7.75;;;3.20;;
48574;SDS011;34352;51.084;3.712;2023-07-13T06:21:18;8.10;;;3.65;;
48574;SDS011;34352;51.084;3.712;2023-07-13T06:23:46;5.85;;;2.95;;
48574;SDS011;34352;51.084;3.712;2023-07-13T06:26:14;10.98;;;3.28;;
48574;SDS011;34352;51.084;3.712;2023-07-13T06:28:40;8.98;;;3.15;;
48574;SDS011;34352;51.084;3.712;2023-07-13T06:31:07;11.95;;;4.20;;
48574;SDS011;34352;51.084;3.712;2023-07-13T06:33:37;7.78;;;2.70;;
48574;SDS011;34352;51.084;3.712;2023-07-13T06:36:16;5.97;;;2.88;;
48574;SDS011;34352;51.084;3.712;2023-07-13T06:38:43;9.55;;;3.88;;
48574;SDS011;34352;51.084;3.712;2023-07-13T06:41:11;5.60;;;3.00;;
48574;SDS011;34352;51.084;3.712;2023-07-13T06:43:50;10.30;;;3.63;;
48574;SDS011;34352;51.084;3.712;2023-07-13T06:46:17;8.30;;;2.70;;
48574;SDS011;34352;51.084;3.712;2023-07-13T06:48:47;8.10;;;3.42;;
48574;SDS011;34352;51.084;3.712;2023-07-13T06:51:15;5.07;;;2.55;;
48574;SDS011;34352;51.084;3.712;2023-07-13T06:53:41;7.85;;;2.80;;
48574;SDS011;34352;51.084;3.712;2023-07-13T06:56:10;3.15;;;2.15;;
48574;SDS011;34352;51.084;3.712;2023-07-13T06:58:36;5.55;;;2.78;;
48574;SDS011;34352;51.084;3.712;2023-07-13T07:01:03;7.70;;;3.13;;
48574;SDS011;34352;51.084;3.712;2023-07-13T07:03:30;6.72;;;2.50;;
48574;SDS011;34352;51.084;3.712;2023-07-13T07:06:01;5.38;;;2.80;;
48574;SDS011;34352;51.084;3.712;2023-07-13T07:08:40;6.70;;;2.45;;
48574;SDS011;34352;51.084;3.712;2023-07-13T07:11:08;4.07;;;2.47;;
48574;SDS011;34352;51.084;3.712;2023-07-13T07:13:36;6.50;;;2.78;;
48574;SDS011;34352;51.084;3.712;2023-07-13T07:16:02;5.78;;;2.67;;
48574;SDS011;34352;51.084;3.712;2023-07-13T07:18:30;6.15;;;2.45;;
48574;SDS011;34352;51.084;3.712;2023-07-13T07:20:56;7.90;;;3.28;;
48574;SDS011;34352;51.084;3.712;2023-07-13T07:23:22;5.75;;;2.58;;
48574;SDS011;34352;51.084;3.712;2023-07-13T07:25:49;3.65;;;1.95;;
48574;SDS011;34352;51.084;3.712;2023-07-13T07:28:18;4.63;;;2.72;;
48574;SDS011;34352;51.084;3.712;2023-07-13T07:30:45;5.60;;;2.00;;
48574;SDS011;34352;51.084;3.712;2023-07-13T07:33:14;7.78;;;2.60;;
48574;SDS011;34352;51.084;3.712;2023-07-13T07:38:23;9.60;;;2.95;;
48574;SDS011;34352;51.084;3.712;2023-07-13T07:40:48;4.10;;;2.70;;
48574;SDS011;34352;51.084;3.712;2023-07-13T07:48:37;5.53;;;1.95;;
48574;SDS011;34352;51.084;3.712;2023-07-13T07:51:03;5.93;;;1.88;;
48574;SDS011;34352;51.084;3.712;2023-07-13T07:53:30;4.47;;;1.95;;
48574;SDS011;34352;51.084;3.712;2023-07-13T07:55:56;5.43;;;2.22;;
48574;SDS011;34352;51.084;3.712;2023-07-13T07:58:21;3.35;;;1.90;;
48574;SDS011;34352;51.084;3.712;2023-07-13T08:00:47;4.60;;;2.10;;
48574;SDS011;34352;51.084;3.712;2023-07-13T08:03:14;5.85;;;2.00;;
48574;SDS011;34352;51.084;3.712;2023-07-13T08:05:39;3.08;;;2.00;;
48574;SDS011;34352;51.084;3.712;2023-07-13T08:08:05;5.80;;;1.85;;
48574;SDS011;34352;51.084;3.712;2023-07-13T08:10:34;3.70;;;1.98;;
48574;SDS011;34352;51.084;3.712;2023-07-13T08:13:03;3.85;;;2.17;;
48574;SDS011;34352;51.084;3.712;2023-07-13T08:15:31;3.92;;;1.73;;
48574;SDS011;34352;51.084;3.712;2023-07-13T08:17:58;4.13;;;2.20;;
48574;SDS011;34352;51.084;3.712;2023-07-13T08:20:26;3.60;;;2.38;;
48574;SDS011;34352;51.084;3.712;2023-07-13T08:22:53;2.08;;;1.83;;
48574;SDS011;34352;51.084;3.712;2023-07-13T08:25:18;5.97;;;2.20;;
48574;SDS011;34352;51.084;3.712;2023-07-13T08:27:46;5.10;;;1.88;;
48574;SDS011;34352;51.084;3.712;2023-07-13T08:30:14;4.50;;;1.85;;
48574;SDS011;34352;51.084;3.712;2023-07-13T08:32:41;3.08;;;2.00;;
48574;SDS011;34352;51.084;3.712;2023-07-13T08:35:08;5.85;;;1.95;;
48574;SDS011;34352;51.084;3.712;2023-07-13T08:37:34;4.95;;;2.22;;
48574;SDS011;34352;51.084;3.712;2023-07-13T08:40:00;4.70;;;1.88;;
48574;SDS011;34352;51.084;3.712;2023-07-13T08:51:16;3.10;;;2.00;;
48574;SDS011;34352;51.084;3.712;2023-07-13T08:53:58;3.17;;;1.80;;
48574;SDS011;34352;51.084;3.712;2023-07-13T08:56:30;2.95;;;1.83;;
48574;SDS011;34352;51.084;3.712;2023-07-13T08:59:01;4.80;;;1.48;;
48574;SDS011;34352;51.084;3.712;2023-07-13T09:04:25;2.55;;;2.00;;
48574;SDS011;34352;51.084;3.712;2023-07-13T09:15:27;3.30;;;2.13;;
48574;SDS011;34352;51.084;3.712;2023-07-13T09:18:43;2.45;;;1.70;;
48574;SDS011;34352;51.084;3.712;2023-07-13T09:21:00;4.65;;;2.00;;
48574;SDS011;34352;51.084;3.712;2023-07-13T09:23:49;6.05;;;1.90;;
48574;SDS011;34352;51.084;3.712;2023-07-13T09:26:23;3.17;;;1.88;;
48574;SDS011;34352;51.084;3.712;2023-07-13T09:34:23;5.63;;;2.25;;
48574;SDS011;34352;51.084;3.712;2023-07-13T09:36:51;4.20;;;2.42;;
48574;SDS011;34352;51.084;3.712;2023-07-13T09:39:23;3.67;;;1.88;;
48574;SDS011;34352;51.084;3.712;2023-07-13T09:44:52;4.63;;;1.77;;
48574;SDS011;34352;51.084;3.712;2023-07-13T09:47:27;3.70;;;1.95;;
48574;SDS011;34352;51.084;3.712;2023-07-13T09:49:58;4.03;;;1.63;;
48574;SDS011;34352;51.084;3.712;2023-07-13T09:52:27;2.17;;;1.50;;
48574;SDS011;34352;51.084;3.712;2023-07-13T09:55:22;2.30;;;1.55;;
48574;SDS011;34352;51.084;3.712;2023-07-13T09:57:55;1.77;;;1.50;;
48574;SDS011;34352;51.084;3.712;2023-07-13T10:00:22;1.60;;;1.42;;
48574;SDS011;34352;51.084;3.712;2023-07-13T10:03:01;5.65;;;2.03;;
48574;SDS011;34352;51.084;3.712;2023-07-13T10:05:37;2.35;;;1.92;;
48574;SDS011;34352;51.084;3.712;2023-07-13T10:08:04;3.40;;;1.67;;
48574;SDS011;34352;51.084;3.712;2023-07-13T10:10:36;3.38;;;1.70;;
48574;SDS011;34352;51.084;3.712;2023-07-13T10:13:11;6.93;;;1.98;;
48574;SDS011;34352;51.084;3.712;2023-07-13T10:15:52;2.85;;;1.60;;
48574;SDS011;34352;51.084;3.712;2023-07-13T10:18:19;2.88;;;1.48;;
48574;SDS011;34352;51.084;3.712;2023-07-13T10:26:12;2.85;;;1.65;;
48574;SDS011;34352;51.084;3.712;2023-07-13T10:28:42;5.72;;;1.90;;
48574;SDS011;34352;51.084;3.712;2023-07-13T10:31:15;5.72;;;2.22;;
48574;SDS011;34352;51.084;3.712;2023-07-13T10:37:01;6.90;;;2.70;;
48574;SDS011;34352;51.084;3.712;2023-07-13T10:39:25;5.85;;;2.40;;
48574;SDS011;34352;51.084;3.712;2023-07-13T10:41:59;5.47;;;2.22;;
48574;SDS011;34352;51.084;3.712;2023-07-13T10:44:32;5.78;;;2.30;;
48574;SDS011;34352;51.084;3.712;2023-07-13T10:47:13;2.53;;;2.08;;
48574;SDS011;34352;51.084;3.712;2023-07-13T10:49:47;2.70;;;1.80;;
48574;SDS011;34352;51.084;3.712;2023-07-13T11:00:50;4.93;;;2.25;;
48574;SDS011;34352;51.084;3.712;2023-07-13T11:03:25;4.07;;;1.88;;
48574;SDS011;34352;51.084;3.712;2023-07-13T11:06:04;3.17;;;2.00;;
48574;SDS011;34352;51.084;3.712;2023-07-13T11:30:08;2.22;;;1.85;;
48574;SDS011;34352;51.084;3.712;2023-07-13T11:32:50;2.25;;;1.77;;
48574;SDS011;34352;51.084;3.712;2023-07-13T11:35:41;3.75;;;2.13;;
48574;SDS011;34352;51.084;3.712;2023-07-13T11:38:42;2.35;;;1.60;;
48574;SDS011;34352;51.084;3.712;2023-07-13T11:41:05;2.45;;;1.50;;
48574;SDS011;34352;51.084;3.712;2023-07-13T11:43:40;3.53;;;1.80;;
48574;SDS011;34352;51.084;3.712;2023-07-13T11:46:20;2.67;;;2.10;;
48574;SDS011;34352;51.084;3.712;2023-07-13T11:48:50;5.25;;;1.73;;
48574;SDS011;34352;51.084;3.712;2023-07-13T11:51:32;3.70;;;1.90;;
48574;SDS011;34352;51.084;3.712;2023-07-13T11:54:04;5.28;;;2.30;;
48574;SDS011;34352;51.084;3.712;2023-07-13T11:56:37;5.43;;;2.20;;
48574;SDS011;34352;51.084;3.712;2023-07-13T11:59:05;3.13;;;2.20;;
48574;SDS011;34352;51.084;3.712;2023-07-13T12:01:35;6.70;;;2.90;;
48574;SDS011;34352;51.084;3.712;2023-07-13T12:04:15;3.85;;;2.33;;
48574;SDS011;34352;51.084;3.712;2023-07-13T12:07:07;2.63;;;2.10;;
48574;SDS011;34352;51.084;3.712;2023-07-13T12:09:40;4.25;;;2.28;;
48574;SDS011;34352;51.084;3.712;2023-07-13T12:12:28;4.90;;;2.13;;
48574;SDS011;34352;51.084;3.712;2023-07-13T12:14:54;4.57;;;2.45;;
48574;SDS011;34352;51.084;3.712;2023-07-13T12:17:23;4.30;;;1.65;;
48574;SDS011;34352;51.084;3.712;2023-07-13T12:19:51;3.15;;;1.70;;
48574;SDS011;34352;51.084;3.712;2023-07-13T12:22:19;4.25;;;2.40;;
48574;SDS011;34352;51.084;3.712;2023-07-13T12:24:46;4.30;;;2.67;;
48574;SDS011;34352;51.084;3.712;2023-07-13T12:27:23;3.10;;;1.77;;
48574;SDS011;34352;51.084;3.712;2023-07-13T12:30:01;2.65;;;1.70;;
48574;SDS011;34352;51.084;3.712;2023-07-13T12:32:31;5.65;;;2.00;;
48574;SDS011;34352;51.084;3.712;2023-07-13T12:35:16;1.95;;;1.58;;
48574;SDS011;34352;51.084;3.712;2023-07-13T12:37:44;2.60;;;1.50;;
48574;SDS011;34352;51.084;3.712;2023-07-13T12:40:19;1.75;;;1.65;;
48574;SDS011;34352;51.084;3.712;2023-07-13T12:42:49;2.92;;;1.85;;
48574;SDS011;34352;51.084;3.712;2023-07-13T12:45:19;4.35;;;2.10;;
48574;SDS011;34352;51.084;3.712;2023-07-13T12:48:03;3.75;;;1.95;;
48574;SDS011;34352;51.084;3.712;2023-07-13T12:50:42;2.22;;;1.90;;
48574;SDS011;34352;51.084;3.712;2023-07-13T12:53:15;3.40;;;2.40;;
48574;SDS011;34352;51.084;3.712;2023-07-13T12:55:53;4.00;;;2.23;;
48574;SDS011;34352;51.084;3.712;2023-07-13T12:58:28;3.88;;;2.20;;
48574;SDS011;34352;51.084;3.712;2023-07-13T13:00:57;6.22;;;2.10;;
48574;SDS011;34352;51.084;3.712;2023-07-13T13:06:25;1.88;;;1.40;;
48574;SDS011;34352;51.084;3.712;2023-07-13T13:08:53;2.35;;;1.40;;
48574;SDS011;34352;51.084;3.712;2023-07-13T13:11:30;3.73;;;1.63;;
48574;SDS011;34352;51.084;3.712;2023-07-13T13:13:58;2.83;;;1.67;;
48574;SDS011;34352;51.084;3.712;2023-07-13T13:16:30;2.58;;;1.60;;
48574;SDS011;34352;51.084;3.712;2023-07-13T13:19:20;3.03;;;1.50;;
48574;SDS011;34352;51.084;3.712;2023-07-13T13:21:53;1.50;;;1.40;;
48574;SDS011;34352;51.084;3.712;2023-07-13T13:24:24;1.30;;;1.20;;
48574;SDS011;34352;51.084;3.712;2023-07-13T13:26:52;1.60;;;1.35;;
48574;SDS011;34352;51.084;3.712;2023-07-13T13:29:21;3.80;;;1.45;;
48574;SDS011;34352;51.084;3.712;2023-07-13T13:31:57;3.08;;;1.52;;
48574;SDS011;34352;51.084;3.712;2023-07-13T13:34:24;3.00;;;1.17;;
48574;SDS011;34352;51.084;3.712;2023-07-13T13:36:51;2.47;;;1.33;;
48574;SDS011;34352;51.084;3.712;2023-07-13T13:39:25;2.30;;;1.23;;
48574;SDS011;34352;51.084;3.712;2023-07-13T13:41:57;1.35;;;0.90;;
48574;SDS011;34352;51.084;3.712;2023-07-13T13:44:24;4.05;;;1.33;;
48574;SDS011;34352;51.084;3.712;2023-07-13T13:46:51;2.08;;;1.13;;
48574;SDS011;34352;51.084;3.712;2023-07-13T13:49:21;4.03;;;1.40;;
48574;SDS011;34352;51.084;3.712;2023-07-13T13:51:49;2.28;;;1.20;;
48574;SDS011;34352;51.084;3.712;2023-07-13T13:54:16;1.92;;;1.10;;
48574;SDS011;34352;51.084;3.712;2023-07-13T13:56:55;2.28;;;1.23;;
48574;SDS011;34352;51.084;3.712;2023-07-13T13:59:20;3.63;;;1.23;;
48574;SDS011;34352;51.084;3.712;2023-07-13T14:01:46;2.67;;;1.20;;
48574;SDS011;34352;51.084;3.712;2023-07-13T14:04:20;2.17;;;1.13;;
48574;SDS011;34352;51.084;3.712;2023-07-13T14:06:49;1.10;;;1.00;;
48574;SDS011;34352;51.084;3.712;2023-07-13T14:09:16;1.20;;;1.10;;
48574;SDS011;34352;51.084;3.712;2023-07-13T14:11:51;2.65;;;1.38;;
48574;SDS011;34352;51.084;3.712;2023-07-13T14:14:19;1.77;;;1.25;;
48574;SDS011;34352;51.084;3.712;2023-07-13T14:16:48;2.42;;;1.38;;
48574;SDS011;34352;51.084;3.712;2023-07-13T14:19:18;1.07;;;0.80;;
48574;SDS011;34352;51.084;3.712;2023-07-13T14:21:45;3.10;;;1.10;;
48574;SDS011;34352;51.084;3.712;2023-07-13T14:24:12;1.92;;;1.20;;
48574;SDS011;34352;51.084;3.712;2023-07-13T14:26:41;1.15;;;0.93;;
48574;SDS011;34352;51.084;3.712;2023-07-13T14:29:12;1.83;;;1.40;;
48574;SDS011;34352;51.084;3.712;2023-07-13T14:31:43;1.88;;;1.23;;
48574;SDS011;34352;51.084;3.712;2023-07-13T14:34:11;1.40;;;1.10;;
48574;SDS011;34352;51.084;3.712;2023-07-13T14:36:42;3.42;;;1.30;;
48574;SDS011;34352;51.084;3.712;2023-07-13T14:42:18;2.05;;;1.20;;
48574;SDS011;34352;51.084;3.712;2023-07-13T14:47:12;1.05;;;0.95;;
48574;SDS011;34352;51.084;3.712;2023-07-13T14:49:39;0.80;;;0.70;;
48574;SDS011;34352;51.084;3.712;2023-07-13T14:52:20;1.83;;;1.23;;
48574;SDS011;34352;51.084;3.712;2023-07-13T14:54:49;2.03;;;1.00;;
48574;SDS011;34352;51.084;3.712;2023-07-13T14:57:16;1.88;;;0.93;;
48574;SDS011;34352;51.084;3.712;2023-07-13T14:59:51;1.20;;;0.90;;
48574;SDS011;34352;51.084;3.712;2023-07-13T15:04:54;3.17;;;1.20;;
48574;SDS011;34352;51.084;3.712;2023-07-13T15:07:21;1.70;;;0.90;;
48574;SDS011;34352;51.084;3.712;2023-07-13T15:09:48;2.25;;;1.20;;
48574;SDS011;34352;51.084;3.712;2023-07-13T15:12:15;2.70;;;1.10;;
48574;SDS011;34352;51.084;3.712;2023-07-13T15:14:42;0.95;;;0.88;;
48574;SDS011;34352;51.084;3.712;2023-07-13T15:17:53;1.25;;;1.00;;
48574;SDS011;34352;51.084;3.712;2023-07-13T15:20:04;0.80;;;0.80;;
48574;SDS011;34352;51.084;3.712;2023-07-13T15:22:40;0.93;;;0.80;;
48574;SDS011;34352;51.084;3.712;2023-07-13T15:25:18;2.38;;;1.35;;
48574;SDS011;34352;51.084;3.712;2023-07-13T15:27:52;2.33;;;1.02;;
48574;SDS011;34352;51.084;3.712;2023-07-13T15:30:20;1.00;;;0.88;;
48574;SDS011;34352;51.084;3.712;2023-07-13T15:32:47;1.05;;;0.90;;
48574;SDS011;34352;51.084;3.712;2023-07-13T15:35:14;2.08;;;0.88;;
48574;SDS011;34352;51.084;3.712;2023-07-13T15:37:41;1.35;;;0.90;;
48574;SDS011;34352;51.084;3.712;2023-07-13T15:40:07;1.55;;;1.13;;
48574;SDS011;34352;51.084;3.712;2023-07-13T15:45:25;1.45;;;0.80;;
48574;SDS011;34352;51.084;3.712;2023-07-13T15:53:32;1.05;;;0.90;;
48574;SDS011;34352;51.084;3.712;2023-07-13T15:56:01;1.42;;;1.10;;
48574;SDS011;34352;51.084;3.712;2023-07-13T15:58:37;1.25;;;1.00;;
48574;SDS011;34352;51.084;3.712;2023-07-13T16:01:03;1.70;;;1.15;;
48574;SDS011;34352;51.084;3.712;2023-07-13T16:03:29;1.77;;;1.20;;
48574;SDS011;34352;51.084;3.712;2023-07-13T16:05:55;4.65;;;1.20;;
48574;SDS011;34352;51.084;3.712;2023-07-13T16:08:24;3.13;;;1.15;;
48574;SDS011;34352;51.084;3.712;2023-07-13T16:13:29;1.83;;;1.10;;
48574;SDS011;34352;51.084;3.712;2023-07-13T16:15:55;2.00;;;1.23;;
48574;SDS011;34352;51.084;3.712;2023-07-13T16:18:23;2.67;;;1.42;;
48574;SDS011;34352;51.084;3.712;2023-07-13T16:20:49;1.98;;;1.20;;
48574;SDS011;34352;51.084;3.712;2023-07-13T16:23:16;1.63;;;1.05;;
48574;SDS011;34352;51.084;3.712;2023-07-13T16:25:44;3.03;;;1.27;;
48574;SDS011;34352;51.084;3.712;2023-07-13T16:28:17;2.97;;;1.15;;
48574;SDS011;34352;51.084;3.712;2023-07-13T16:30:43;1.98;;;1.10;;
48574;SDS011;34352;51.084;3.712;2023-07-13T16:33:11;1.30;;;1.15;;
48574;SDS011;34352;51.084;3.712;2023-07-13T16:35:38;2.30;;;1.40;;
48574;SDS011;34352;51.084;3.712;2023-07-13T16:38:20;4.03;;;1.60;;
48574;SDS011;34352;51.084;3.712;2023-07-13T16:40:49;4.88;;;1.33;;
48574;SDS011;34352;51.084;3.712;2023-07-13T16:43:16;4.50;;;1.52;;
48574;SDS011;34352;51.084;3.712;2023-07-13T16:46:00;2.33;;;1.23;;
48574;SDS011;34352;51.084;3.712;2023-07-13T16:48:36;4.97;;;1.30;;
48574;SDS011;34352;51.084;3.712;2023-07-13T16:51:10;1.20;;;1.10;;
48574;SDS011;34352;51.084;3.712;2023-07-13T16:53:38;1.02;;;0.70;;
48574;SDS011;34352;51.084;3.712;2023-07-13T16:56:13;7.38;;;1.77;;
48574;SDS011;34352;51.084;3.712;2023-07-13T16:58:42;2.08;;;1.10;;